Tokuyo Maru No.15 — JD2184 — position and weather

sailwx.info

Track history (hours):
 
Tides and Currents Weather Stations Pressure Air Temp Water Temp Dewpoint Dewpoint Depression Visibility Wind Speed Wind Dir Waves Ship Positions

Tokuyo Maru No.15

Last reported at 2015-Aug-30 13:26 UTC. Time now 2015-Sep-02 10:31 UTC.
Position N 34°07' E 134°60'.

Length 66 m; draft 4.5 m.

Type: Tanker. MMSI: 431402034.

Date/timePositionNaut miles runAvg speedWind from/ knotsBaromVisibWave heightAir tempDewpointWater temp
2015-Aug-30 13:26N 34°07' E 134°60'8 0.7
2015-Aug-30 01:12N 34°15' E 134°59'  
2015-Aug-26 10:32N 34°14' E 134°59'10 9.5
2015-Aug-26 09:31N 34°23' E 135°03'6 0.2
2015-Aug-25 09:30N 34°23' E 135°09'0 0.0
2015-Aug-25 08:18N 34°23' E 135°09'0 0.0
2015-Aug-24 16:30N 34°23' E 135°09'0 0.0
2015-Aug-24 14:30N 34°23' E 135°09'0 0.0
2015-Aug-24 12:18N 34°23' E 135°09'0 0.0
2015-Aug-24 11:30N 34°23' E 135°09'0 0.0
2015-Aug-24 10:24N 34°23' E 135°09'0 0.0
2015-Aug-24 07:05N 34°23' E 135°09'6 8.6
2015-Aug-24 06:24N 34°28' E 135°13'1011.6
2015-Aug-24 05:33N 34°33' E 135°23'1 0.1
2015-Aug-23 23:32N 34°33' E 135°25'5 4.4
2015-Aug-23 22:29N 34°33' E 135°19'0 0.0
2015-Aug-23 21:29N 34°33' E 135°19'0 0.0
2015-Aug-23 20:29N 34°33' E 135°19'0 0.0
2015-Aug-23 19:29N 34°33' E 135°19'0 0.0
2015-Aug-23 18:29N 34°33' E 135°19'0 0.0
2015-Aug-23 17:29N 34°33' E 135°19'0 0.0
2015-Aug-23 16:29N 34°33' E 135°19'0 0.0
2015-Aug-23 15:29N 34°33' E 135°19'0 0.0
2015-Aug-23 14:29N 34°33' E 135°19'0 0.0
2015-Aug-23 13:17N 34°33' E 135°19'0 0.0
2015-Aug-23 12:29N 34°33' E 135°19'0 0.0
2015-Aug-23 11:23N 34°33' E 135°19'0 0.0
2015-Aug-23 10:29N 34°33' E 135°19'0 0.0
2015-Aug-23 09:29N 34°33' E 135°19'2 2.5
2015-Aug-23 08:33N 34°31' E 135°17'2311.5
2015-Aug-23 06:33N 34°13' E 134°60'8 0.2
2015-Aug-21 08:10N 34°05' E 135°00'811.6
2015-Aug-21 07:30N 34°12' E 134°59'2110.6
2015-Aug-21 05:33N 34°29' E 135°14'9 1.2
2015-Aug-20 22:24N 34°33' E 135°23'3 0.6
2015-Aug-20 17:10N 34°32' E 135°20'0 0.0
2015-Aug-20 16:28N 34°32' E 135°20'0 0.0
2015-Aug-20 15:16N 34°32' E 135°20'0 0.0
2015-Aug-20 14:28N 34°32' E 135°20'  
Track history (hours):
 
Tides and Currents Weather Stations Pressure Air Temp Water Temp Dewpoint Dewpoint Depression Visibility Wind Speed Wind Dir Waves Ship Positions

Tokuyo Maru No.15

Last reported at 2015-Aug-30 13:26 UTC. Time now 2015-Sep-02 10:31 UTC.
Position N 34°07' E 134°60'.

Length 66 m; draft 4.5 m.

Type: Tanker. MMSI: 431402034.

Date/timePositionNaut miles runAvg speedWind from/ knotsBaromVisibWave heightAir tempDewpointWater temp
2015-Aug-30 13:26N 34°07' E 134°60'8 0.7
2015-Aug-30 01:12N 34°15' E 134°59'  
2015-Aug-26 10:32N 34°14' E 134°59'10 9.5
2015-Aug-26 09:31N 34°23' E 135°03'6 0.2
2015-Aug-25 09:30N 34°23' E 135°09'0 0.0
2015-Aug-25 08:18N 34°23' E 135°09'0 0.0
2015-Aug-24 16:30N 34°23' E 135°09'0 0.0
2015-Aug-24 14:30N 34°23' E 135°09'0 0.0
2015-Aug-24 12:18N 34°23' E 135°09'0 0.0
2015-Aug-24 11:30N 34°23' E 135°09'0 0.0
2015-Aug-24 10:24N 34°23' E 135°09'0 0.0
2015-Aug-24 07:05N 34°23' E 135°09'6 8.6
2015-Aug-24 06:24N 34°28' E 135°13'1011.6
2015-Aug-24 05:33N 34°33' E 135°23'1 0.1
2015-Aug-23 23:32N 34°33' E 135°25'5 4.4
2015-Aug-23 22:29N 34°33' E 135°19'0 0.0
2015-Aug-23 21:29N 34°33' E 135°19'0 0.0
2015-Aug-23 20:29N 34°33' E 135°19'0 0.0
2015-Aug-23 19:29N 34°33' E 135°19'0 0.0
2015-Aug-23 18:29N 34°33' E 135°19'0 0.0
2015-Aug-23 17:29N 34°33' E 135°19'0 0.0
2015-Aug-23 16:29N 34°33' E 135°19'0 0.0
2015-Aug-23 15:29N 34°33' E 135°19'0 0.0
2015-Aug-23 14:29N 34°33' E 135°19'0 0.0
2015-Aug-23 13:17N 34°33' E 135°19'0 0.0
2015-Aug-23 12:29N 34°33' E 135°19'0 0.0
2015-Aug-23 11:23N 34°33' E 135°19'0 0.0
2015-Aug-23 10:29N 34°33' E 135°19'0 0.0
2015-Aug-23 09:29N 34°33' E 135°19'2 2.5
2015-Aug-23 08:33N 34°31' E 135°17'2311.5
2015-Aug-23 06:33N 34°13' E 134°60'8 0.2
2015-Aug-21 08:10N 34°05' E 135°00'811.6
2015-Aug-21 07:30N 34°12' E 134°59'2110.6
2015-Aug-21 05:33N 34°29' E 135°14'9 1.2
2015-Aug-20 22:24N 34°33' E 135°23'3 0.6
2015-Aug-20 17:10N 34°32' E 135°20'0 0.0
2015-Aug-20 16:28N 34°32' E 135°20'0 0.0
2015-Aug-20 15:16N 34°32' E 135°20'0 0.0
2015-Aug-20 14:28N 34°32' E 135°20'  

Dump ship's entire track history